Latest Coastal Weather Observations for Cocos Island

IDW60701

Issued at 10:55 am WST Thursday 28 August 2014 (issued every 10 minutes, with the page automatically refreshed every 10 minutes)

About coastal observations | Map of coastal stations | Coastal observations for WA | Marine services | Other Formats
Station Details ID: 200284 Name: COCOS ISLAND AIRPORT Lat: -12.19 Lon: 96.83 Height: 3.0 m
Data from the previous 72 hours. | See also: Recent months at Cocos Island
Date/Time
WST
Temp

°C
Wind Pressure Rain
since 9am
mm
Weather Cloud Vis
km
Sea
Height
m
Swell
Dir
 
Speed
knots
Gust
knots
hPa Trend Height
m
Period
s
Dir
28/10:30am 27.8 E 11 13 1013.0 - 0.0 - Mostly clear 10 - - - -
28/10:00am 27.5 E 11 13 1012.7 - 0.0 - - - - - - -
28/09:30am 27.1 E 12 14 1012.4 - 0.0 - Partly cloudy - - - - -
28/09:00am 26.7 E 13 15 1012.1 - 0.0 - Partly cloudy - - - - -
28/08:30am 26.3 E 10 13 1011.9 - 0.0 - Partly cloudy - - - - -
28/08:00am 26.2 ESE 9 14 1011.5 - 0.0 - Cloudy - - - - -
28/07:30am 26.1 E 10 14 1011.3 - 0.0 - Partly cloudy - - - - -
28/07:00am 26.1 ESE 11 16 1011.0 - 0.0 - - - - - - -
28/06:30am 26.0 ESE 8 11 1010.9 - 0.0 - Partly cloudy - - - - -
28/06:00am 26.1 ESE 11 13 1010.7 - 0.0 - Cloudy - - - - -
28/05:30am 26.0 E 9 13 1010.6 - 0.0 - - - - - - -
28/05:00am 26.0 ESE 8 11 1010.7 - 0.0 - Cloudy - - - - -
28/04:30am 26.0 ESE 9 12 1010.7 - 0.0 - Partly cloudy - - - - -
28/04:00am 25.9 ESE 9 12 1011.0 - 0.0 - - - - - - -
28/03:30am 25.9 ESE 10 13 1011.1 - 0.0 - - - - - - -
28/03:00am 26.0 ESE 10 14 1011.4 - 0.0 - Partly cloudy - - - - -
28/02:30am 26.0 ESE 7 9 1011.6 - 0.0 - Partly cloudy - - - - -
28/02:00am 26.0 E 8 12 1011.9 - 0.0 - Cloudy - - - - -
28/01:30am 26.1 ESE 9 13 1012.0 - 0.0 - Partly cloudy - - - - -
28/01:00am 25.8 ESE 11 14 1012.2 - 0.0 - - - - - - -
28/12:30am 26.0 ESE 11 14 1012.5 - 0.0 - - - - - - -
28/12:00am 26.5 ESE 11 15 1012.7 - 0.0 - Partly cloudy - - - - -
 
Date/Time
WST
Temp

°C
Wind Pressure Rain
since 9am
mm
Weather Cloud Vis
km
Sea
Height
m
Swell
Dir
 
Speed
knots
Gust
knots
hPa Trend Height
m
Period
s
Dir
27/11:30pm 26.6 ESE 10 13 1012.8 - 0.0 - Partly cloudy - - - - -
27/11:00pm 26.6 ESE 10 13 1012.6 - 0.0 - - - - - - -
27/10:30pm 26.7 ESE 10 13 1012.7 - 0.0 - Partly cloudy - - - - -
27/10:00pm 26.7 ESE 9 11 1012.7 - 0.0 - Partly cloudy - - - - -
27/09:30pm 26.7 ESE 10 14 1012.4 - 0.0 - - - - - - -
27/09:00pm 26.7 ESE 9 12 1012.1 - 0.0 - - - - - - -
27/08:30pm 26.7 ESE 10 14 1011.7 - 0.0 - - 10 - - - -
27/08:00pm 26.8 ESE 11 16 1011.3 - 0.0 - Cloudy 10 - - - -
27/07:30pm 26.8 ESE 10 14 1011.0 - 0.0 - Partly cloudy - - - - -
27/07:00pm 26.9 ESE 9 13 1010.7 - 0.0 - Partly cloudy - - - - -
27/06:30pm 27.3 ESE 11 13 1010.6 - 0.0 - Mostly clear 10 - - - -
27/06:00pm 27.5 ESE 12 15 1010.4 - 0.0 - Mostly clear 10 - - - -
27/05:30pm 27.6 ESE 11 14 1010.2 - 0.0 - Mostly clear 10 - - - -
27/05:00pm 27.7 ESE 11 15 1010.0 - 0.0 Fine Mostly clear 30 - - - -
27/04:30pm 27.5 SE 12 15 1010.0 - 0.0 - Mostly clear 10 - - - -
27/04:00pm 27.9 ESE 11 15 1010.2 - 0.0 - Mostly clear 10 - - - -
27/03:30pm 27.9 ESE 11 17 1010.4 - 0.0 - Mostly clear 10 - - - -
27/03:00pm 28.1 ESE 11 14 1010.8 - 0.0 - Partly cloudy 10 - - - -
27/02:30pm 27.8 ESE 11 16 1011.1 - 0.0 - Mostly clear 10 - - - -
27/02:00pm 27.6 ESE 11 16 1011.2 - 0.0 Fine Mostly clear 30 - - - -
27/01:30pm 28.1 E 11 15 1011.7 - 0.0 - Mostly clear 10 - - - -
27/01:00pm 27.9 ESE 11 17 1011.9 - 0.0 - Mostly clear 10 - - - -
27/12:30pm 27.6 ESE 13 19 1012.2 - 0.0 - Mostly clear 10 - - - -
27/12:00pm 26.9 ESE 14 17 1012.5 - 0.0 - Mostly clear 10 - - - -
27/11:30am 27.1 ESE 12 17 1012.8 - 0.0 - Mostly clear 10 - - - -
27/11:00am 27.2 ESE 13 17 1012.9 - 0.4 Fine Mostly clear 25 - - - -
27/10:30am 27.1 ESE 12 16 1012.9 - 0.4 - Mostly clear 10 - - - -
27/10:00am 26.9 E 13 17 1012.8 - 0.4 - Mostly clear 10 - - - -
27/09:30am 26.3 E 12 16 1012.5 - 0.4 - Mostly clear 10 - - - -
27/09:00am 26.2 E 11 14 1012.3 - 0.4 - Mostly clear 10 - - - -
27/08:30am 25.6 ESE 11 15 1011.9 - 0.4 - Mostly clear 10 - - - -
27/08:00am 25.2 ESE 10 12 1011.7 - 0.4 Fine Partly cloudy 20 - - - -
27/07:30am 24.9 SE 10 13 1011.4 - 0.4 - Mostly clear 10 - - - -
27/07:00am 25.1 SE 12 14 1011.2 - 0.4 - Mostly clear 10 - - - -
27/06:30am 25.2 SE 13 18 1011.0 - 0.4 - Partly cloudy 10 - - - -
27/06:00am 25.1 SE 13 15 1010.9 - 0.4 - Partly cloudy 10 - - - -
27/05:30am 25.0 SE 13 18 1010.8 - 0.4 - Partly cloudy 10 - - - -
27/05:00am 25.0 SE 12 17 1010.8 - 0.4 - Cloudy 10 - - - -
27/04:30am 25.0 SE 13 16 1011.0 - 0.4 - - - - - - -
27/04:00am 24.9 SE 9 12 1011.1 - 0.4 - Partly cloudy - - - - -
27/03:30am 24.9 SE 11 15 1011.3 - 0.4 - - - - - - -
27/03:00am 25.0 SE 12 15 1011.7 - 0.4 - - - - - - -
27/02:30am 25.0 ESE 12 15 1012.2 - 0.4 - - - - - - -
27/02:00am 25.0 SE 11 15 1012.6 - 0.4 - - - - - - -
27/01:30am 25.0 ESE 11 14 1013.0 - 0.4 - Partly cloudy - - - - -
27/01:00am 25.2 ESE 12 16 1013.2 - 0.4 - Partly cloudy 10 - - - -
27/12:30am 25.4 SE 13 16 1013.5 - 0.4 - - 10 - - - -
27/12:00am 25.5 ESE 12 15 1013.6 - 0.4 - - 10 - - - -
 
Date/Time
WST
Temp

°C
Wind Pressure Rain
since 9am
mm
Weather Cloud Vis
km
Sea
Height
m
Swell
Dir
 
Speed
knots
Gust
knots
hPa Trend Height
m
Period
s
Dir
26/11:30pm 25.5 ESE 13 17 1013.5 - 0.4 - - 10 - - - -
26/11:00pm 25.7 ESE 12 17 1013.6 - 0.4 - - 10 - - - -
26/10:30pm 25.8 ESE 13 17 1013.6 - 0.4 - - 10 - - - -
26/10:00pm 26.0 ESE 13 17 1013.5 - 0.4 - - - - - - -
26/09:30pm 26.0 ESE 13 17 1013.3 - 0.4 - - - - - - -
26/09:00pm 26.1 ESE 14 18 1013.0 - 0.4 - Partly cloudy - - - - -
26/08:30pm 26.1 ESE 15 18 1012.7 - 0.4 - Partly cloudy - - - - -
26/08:00pm 26.1 ESE 14 18 1012.3 - 0.4 - Cloudy - - - - -
26/07:30pm 26.4 ESE 15 19 1011.9 - 0.4 - Cloudy - - - - -
26/07:00pm 26.5 ESE 16 20 1011.7 - 0.4 - Partly cloudy 10 - - - -
26/06:30pm 26.6 ESE 15 21 1011.6 - 0.4 - Partly cloudy - - - - -
26/06:00pm 26.7 ESE 17 23 1011.4 - 0.4 - Partly cloudy 10 - - - -
26/05:30pm 26.8 ESE 17 22 1011.2 - 0.4 - Partly cloudy 10 - - - -
26/05:00pm 27.4 ESE 14 19 1011.1 - 0.4 Distant precip. Mostly cloudy 20 - - - -
26/04:30pm 27.4 ESE 16 21 1011.1 - 0.4 - Partly cloudy 10 - - - -
26/04:00pm 27.4 ESE 16 20 1011.1 - 0.4 - Mostly clear 10 - - - -
26/03:30pm 28.1 ESE 15 19 1011.4 - 0.4 - Mostly clear 10 - - - -
26/03:00pm 28.2 ESE 16 21 1011.7 - 0.4 - Mostly clear 10 - - - -
26/02:30pm 28.2 E 16 21 1012.2 - 0.4 - Mostly clear 10 - - - -
26/02:00pm 27.8 ESE 17 23 1012.7 - 0.4 Fine Mostly cloudy 20 - - - -
26/01:30pm 27.7 ESE 17 23 1013.0 - 0.4 - Mostly clear 10 - - - -
26/01:00pm 27.9 ESE 18 23 1013.5 - 0.4 - Mostly clear 10 - - - -
26/12:30pm 27.4 ESE 17 23 1013.7 - 0.4 - Mostly clear 10 - - - -
26/12:00pm 27.8 ESE 17 21 1014.2 - 0.4 - Mostly clear 10 - - - -
26/11:30am 27.1 ESE 17 21 1014.5 - 0.4 - Mostly clear 10 - - - -
26/11:00am 25.8 E 15 19 1014.8 - 0.2 Showers Mostly cloudy 15 - - - -
26/10:48am 24.9 ESE 19 27 1015.0 - 0.2 Showers Partly cloudy 6 - - - -
26/10:40am 25.5 ESE 15 27 1014.9 - 0.2 Showers Partly cloudy 4 - - - -
26/10:37am 26.5 E 15 20 1014.7 - 0.2 Showers Partly cloudy 4 - - - -
26/10:30am 26.8 ESE 15 20 1014.7 - 0.2 - Partly cloudy 10 - - - -
26/10:00am 26.5 ESE 15 21 1014.6 - 0.2 - Mostly clear 10 - - - -
26/09:30am 26.4 ESE 14 19 1014.3 - 0.2 - Mostly clear 10 - - - -
26/09:00am 26.0 E 15 21 1014.1 - 0.2 - - - - - - -
26/08:30am 25.6 E 17 21 1013.6 - 0.2 - - 10 - - - -
26/08:00am 25.3 ESE 17 23 1013.4 - 0.2 Fine Mostly cloudy 16 - - - -
26/07:30am 25.0 ESE 17 23 1013.0 - 0.2 - Mostly clear 10 - - - -
26/07:00am 25.0 ESE 18 24 1012.8 - 0.2 - Mostly clear 10 - - - -
26/06:30am 25.4 SE 15 19 1012.6 - 0.2 - Partly cloudy - - - - -
26/06:00am 25.0 ESE 18 22 1012.5 - 0.2 - Partly cloudy - - - - -
26/05:30am 25.7 ESE 12 15 1012.6 - 0.2 - Partly cloudy - - - - -
26/05:00am 25.8 ESE 12 16 1012.7 - 0.2 - Cloudy - - - - -
26/04:30am 25.4 ESE 13 16 1012.9 - 0.2 - - 10 - - - -
26/04:00am 25.4 ESE 14 18 1013.2 - 0.2 - Partly cloudy 10 - - - -
26/03:30am 25.6 E 11 15 1013.4 - 0.2 - Partly cloudy 10 - - - -
26/03:00am 25.5 ESE 12 16 1013.7 - 0.2 - Partly cloudy 10 - - - -
26/02:30am 25.3 ESE 14 19 1013.9 - 0.2 - Partly cloudy - - - - -
26/02:00am 25.8 ESE 13 18 1014.0 - 0.2 - Cloudy - - - - -
26/01:30am 25.7 E 11 15 1014.2 - 0.2 - Partly cloudy - - - - -
26/01:00am 25.7 ESE 13 18 1014.4 - 0.2 - Partly cloudy - - - - -
26/12:30am 25.9 ESE 13 18 1014.5 - 0.2 - Partly cloudy - - - - -
26/12:00am 25.9 ESE 12 15 1014.7 - 0.2 - - - - - - -
 
Date/Time
WST
Temp

°C
Wind Pressure Rain
since 9am
mm
Weather Cloud Vis
km
Sea
Height
m
Swell
Dir
 
Speed
knots
Gust
knots
hPa Trend Height
m
Period
s
Dir
25/11:30pm 26.2 ESE 14 18 1014.8 - 0.2 - - - - - - -
25/11:00pm 26.2 ESE 16 20 1014.8 - 0.2 - Cloudy - - - - -
25/10:30pm 26.4 SE 14 18 1014.7 - 0.2 - Partly cloudy - - - - -
25/10:00pm 26.4 ESE 13 17 1014.5 - 0.2 - Partly cloudy - - - - -
25/09:30pm 26.4 SE 14 18 1014.3 - 0.2 - Partly cloudy - - - - -
25/09:00pm 26.7 SE 14 18 1014.0 - 0.2 - - - - - - -
25/08:30pm 26.5 SE 13 16 1013.7 - 0.2 - Partly cloudy - - - - -
25/08:00pm 26.6 SE 13 18 1013.4 - 0.2 - Cloudy - - - - -
25/07:30pm 26.8 SE 14 19 1012.9 - 0.2 - Partly cloudy - - - - -
25/07:00pm 26.7 SE 14 19 1012.6 - 0.2 - Partly cloudy - - - - -
25/06:30pm 27.2 SE 15 19 1012.2 - 0.2 - Partly cloudy - - - - -
25/06:00pm 27.2 SE 15 19 1012.1 - 0.2 - Partly cloudy - - - - -
25/05:30pm 27.6 SE 15 19 1012.0 - 0.2 - - - - - - -
25/05:00pm 27.6 SE 15 19 1011.9 - 0.2 - - - - - - -
25/04:30pm 28.1 SE 15 19 1012.2 - 0.2 - Partly cloudy - - - - -
25/04:00pm 28.0 SE 14 21 1012.2 - 0.2 - - - - - - -
25/03:30pm 28.1 SE 15 19 1012.5 - 0.2 - Partly cloudy - - - - -
25/03:00pm 28.0 SE 14 19 1012.7 - 0.2 - Partly cloudy - - - - -
25/02:30pm 28.1 SE 15 21 1013.1 - 0.2 - - - - - - -
25/02:00pm 27.9 SE 15 19 1013.5 - 0.2 - - - - - - -
25/01:30pm 28.1 SE 15 20 1013.9 - 0.2 - - - - - - -
25/01:00pm 28.2 SE 15 21 1014.3 - 0.2 - Partly cloudy - - - - -
25/12:30pm 27.9 SE 14 19 1014.6 - 0.2 - - - - - - -

Other Formats:

Comma delimited format used in spreadsheet applications
http://www.bom.gov.au/fwo/IDW60701/IDW60701.96996.axf

JavaScript Object Notation format (JSON) in row-major order
http://www.bom.gov.au/fwo/IDW60701/IDW60701.96996.json